sensor_id;sensor_type;location;lat;lon;timestamp;P1;durP1;ratioP1;P2;durP2;ratioP2
52380;SDS011;38310;52.796;6.942;2023-12-14T00:00:51;16.70;;;14.60;;
52380;SDS011;38310;52.796;6.942;2023-12-14T00:03:16;13.52;;;12.07;;
52380;SDS011;38310;52.796;6.942;2023-12-14T00:05:42;14.57;;;12.80;;
52380;SDS011;38310;52.796;6.942;2023-12-14T00:08:08;14.85;;;12.38;;
52380;SDS011;38310;52.796;6.942;2023-12-14T00:10:33;14.27;;;12.52;;
52380;SDS011;38310;52.796;6.942;2023-12-14T00:12:59;14.88;;;12.77;;
52380;SDS011;38310;52.796;6.942;2023-12-14T00:15:25;13.88;;;11.57;;
52380;SDS011;38310;52.796;6.942;2023-12-14T00:17:52;13.88;;;12.07;;
52380;SDS011;38310;52.796;6.942;2023-12-14T00:20:18;13.88;;;11.95;;
52380;SDS011;38310;52.796;6.942;2023-12-14T00:22:43;12.30;;;10.77;;
52380;SDS011;38310;52.796;6.942;2023-12-14T00:25:09;14.30;;;11.70;;
52380;SDS011;38310;52.796;6.942;2023-12-14T00:27:35;14.52;;;11.18;;
52380;SDS011;38310;52.796;6.942;2023-12-14T00:30:01;13.20;;;11.38;;
52380;SDS011;38310;52.796;6.942;2023-12-14T00:32:26;13.25;;;11.82;;
52380;SDS011;38310;52.796;6.942;2023-12-14T00:34:52;11.90;;;10.70;;
52380;SDS011;38310;52.796;6.942;2023-12-14T00:37:18;11.80;;;9.95;;
52380;SDS011;38310;52.796;6.942;2023-12-14T00:39:44;13.73;;;10.95;;
52380;SDS011;38310;52.796;6.942;2023-12-14T00:42:09;11.57;;;10.38;;
52380;SDS011;38310;52.796;6.942;2023-12-14T00:44:35;12.07;;;10.45;;
52380;SDS011;38310;52.796;6.942;2023-12-14T00:47:01;14.30;;;11.45;;
52380;SDS011;38310;52.796;6.942;2023-12-14T00:49:32;11.68;;;10.43;;
52380;SDS011;38310;52.796;6.942;2023-12-14T00:51:58;12.18;;;10.45;;
52380;SDS011;38310;52.796;6.942;2023-12-14T00:54:24;11.88;;;10.65;;
52380;SDS011;38310;52.796;6.942;2023-12-14T00:56:49;13.27;;;10.63;;
52380;SDS011;38310;52.796;6.942;2023-12-14T00:59:15;12.65;;;10.40;;
52380;SDS011;38310;52.796;6.942;2023-12-14T01:01:42;12.45;;;11.02;;
52380;SDS011;38310;52.796;6.942;2023-12-14T01:04:08;13.00;;;11.02;;
52380;SDS011;38310;52.796;6.942;2023-12-14T01:06:34;13.35;;;11.23;;
52380;SDS011;38310;52.796;6.942;2023-12-14T01:09:00;13.50;;;12.02;;
52380;SDS011;38310;52.796;6.942;2023-12-14T01:11:26;14.13;;;12.15;;
52380;SDS011;38310;52.796;6.942;2023-12-14T01:13:51;13.70;;;11.15;;
52380;SDS011;38310;52.796;6.942;2023-12-14T01:16:17;13.10;;;11.02;;
52380;SDS011;38310;52.796;6.942;2023-12-14T01:18:43;14.27;;;11.80;;
52380;SDS011;38310;52.796;6.942;2023-12-14T01:21:08;13.80;;;12.18;;
52380;SDS011;38310;52.796;6.942;2023-12-14T01:23:34;13.75;;;11.02;;
52380;SDS011;38310;52.796;6.942;2023-12-14T01:26:00;15.45;;;11.88;;
52380;SDS011;38310;52.796;6.942;2023-12-14T01:28:26;14.68;;;11.35;;
52380;SDS011;38310;52.796;6.942;2023-12-14T01:30:52;13.30;;;11.18;;
52380;SDS011;38310;52.796;6.942;2023-12-14T01:33:18;13.57;;;11.50;;
52380;SDS011;38310;52.796;6.942;2023-12-14T01:35:44;17.90;;;11.85;;
52380;SDS011;38310;52.796;6.942;2023-12-14T01:38:10;14.65;;;11.27;;
52380;SDS011;38310;52.796;6.942;2023-12-14T01:40:36;15.90;;;11.98;;
52380;SDS011;38310;52.796;6.942;2023-12-14T01:43:08;12.82;;;11.50;;
52380;SDS011;38310;52.796;6.942;2023-12-14T01:45:38;13.60;;;11.00;;
52380;SDS011;38310;52.796;6.942;2023-12-14T01:48:04;13.57;;;11.35;;
52380;SDS011;38310;52.796;6.942;2023-12-14T01:50:30;12.35;;;10.32;;
52380;SDS011;38310;52.796;6.942;2023-12-14T01:52:56;13.75;;;10.82;;
52380;SDS011;38310;52.796;6.942;2023-12-14T01:55:21;12.80;;;11.20;;
52380;SDS011;38310;52.796;6.942;2023-12-14T01:57:47;15.45;;;11.82;;
52380;SDS011;38310;52.796;6.942;2023-12-14T02:00:20;16.33;;;11.65;;
52380;SDS011;38310;52.796;6.942;2023-12-14T02:02:53;16.65;;;12.18;;
52380;SDS011;38310;52.796;6.942;2023-12-14T02:05:19;16.48;;;11.60;;
52380;SDS011;38310;52.796;6.942;2023-12-14T02:07:46;16.45;;;11.02;;
52380;SDS011;38310;52.796;6.942;2023-12-14T02:10:12;17.27;;;13.05;;
52380;SDS011;38310;52.796;6.942;2023-12-14T02:12:38;15.50;;;12.23;;
52380;SDS011;38310;52.796;6.942;2023-12-14T02:15:04;18.15;;;12.38;;
52380;SDS011;38310;52.796;6.942;2023-12-14T02:17:30;17.08;;;12.27;;
52380;SDS011;38310;52.796;6.942;2023-12-14T02:19:56;16.80;;;11.95;;
52380;SDS011;38310;52.796;6.942;2023-12-14T02:22:21;15.07;;;11.90;;
52380;SDS011;38310;52.796;6.942;2023-12-14T02:24:48;15.48;;;12.57;;
52380;SDS011;38310;52.796;6.942;2023-12-14T02:27:14;14.88;;;11.98;;
52380;SDS011;38310;52.796;6.942;2023-12-14T02:29:40;16.20;;;11.98;;
52380;SDS011;38310;52.796;6.942;2023-12-14T02:32:06;14.95;;;12.35;;
52380;SDS011;38310;52.796;6.942;2023-12-14T02:34:31;15.50;;;11.65;;
52380;SDS011;38310;52.796;6.942;2023-12-14T02:36:57;16.77;;;11.65;;
52380;SDS011;38310;52.796;6.942;2023-12-14T02:39:23;17.00;;;12.15;;
52380;SDS011;38310;52.796;6.942;2023-12-14T02:41:48;15.40;;;11.88;;
52380;SDS011;38310;52.796;6.942;2023-12-14T02:44:14;14.00;;;11.70;;
52380;SDS011;38310;52.796;6.942;2023-12-14T02:46:40;15.80;;;10.82;;
52380;SDS011;38310;52.796;6.942;2023-12-14T02:49:05;14.45;;;12.00;;
52380;SDS011;38310;52.796;6.942;2023-12-14T02:51:31;15.85;;;11.57;;
52380;SDS011;38310;52.796;6.942;2023-12-14T02:53:57;14.45;;;11.32;;
52380;SDS011;38310;52.796;6.942;2023-12-14T02:56:23;16.65;;;12.25;;
52380;SDS011;38310;52.796;6.942;2023-12-14T02:58:49;14.15;;;11.60;;
52380;SDS011;38310;52.796;6.942;2023-12-14T03:01:19;14.90;;;11.25;;
52380;SDS011;38310;52.796;6.942;2023-12-14T03:03:46;14.07;;;11.93;;
52380;SDS011;38310;52.796;6.942;2023-12-14T03:06:12;14.93;;;12.27;;
52380;SDS011;38310;52.796;6.942;2023-12-14T03:08:39;12.75;;;10.70;;
52380;SDS011;38310;52.796;6.942;2023-12-14T03:11:05;16.30;;;11.95;;
52380;SDS011;38310;52.796;6.942;2023-12-14T03:13:31;14.43;;;11.95;;
52380;SDS011;38310;52.796;6.942;2023-12-14T03:15:56;15.02;;;12.30;;
52380;SDS011;38310;52.796;6.942;2023-12-14T03:18:22;14.63;;;11.77;;
52380;SDS011;38310;52.796;6.942;2023-12-14T03:20:48;14.75;;;11.48;;
52380;SDS011;38310;52.796;6.942;2023-12-14T03:23:14;13.38;;;11.40;;
52380;SDS011;38310;52.796;6.942;2023-12-14T03:25:39;15.13;;;11.70;;
52380;SDS011;38310;52.796;6.942;2023-12-14T03:28:05;13.82;;;11.00;;
52380;SDS011;38310;52.796;6.942;2023-12-14T03:30:31;16.38;;;11.68;;
52380;SDS011;38310;52.796;6.942;2023-12-14T03:32:57;14.73;;;11.00;;
52380;SDS011;38310;52.796;6.942;2023-12-14T03:35:23;15.55;;;11.25;;
52380;SDS011;38310;52.796;6.942;2023-12-14T03:37:48;14.95;;;10.57;;
52380;SDS011;38310;52.796;6.942;2023-12-14T03:40:14;14.50;;;10.75;;
52380;SDS011;38310;52.796;6.942;2023-12-14T03:42:40;13.90;;;10.20;;
52380;SDS011;38310;52.796;6.942;2023-12-14T03:45:11;13.32;;;10.90;;
52380;SDS011;38310;52.796;6.942;2023-12-14T03:47:37;16.88;;;11.32;;
52380;SDS011;38310;52.796;6.942;2023-12-14T03:50:03;14.70;;;10.75;;
52380;SDS011;38310;52.796;6.942;2023-12-14T03:52:29;16.58;;;11.35;;
52380;SDS011;38310;52.796;6.942;2023-12-14T03:54:56;14.85;;;11.65;;
52380;SDS011;38310;52.796;6.942;2023-12-14T03:57:22;13.68;;;10.68;;
52380;SDS011;38310;52.796;6.942;2023-12-14T03:59:47;15.73;;;11.23;;
52380;SDS011;38310;52.796;6.942;2023-12-14T04:02:13;13.73;;;9.48;;
52380;SDS011;38310;52.796;6.942;2023-12-14T04:04:39;12.95;;;9.82;;
52380;SDS011;38310;52.796;6.942;2023-12-14T04:07:05;14.10;;;10.80;;
52380;SDS011;38310;52.796;6.942;2023-12-14T04:09:31;15.23;;;10.48;;
52380;SDS011;38310;52.796;6.942;2023-12-14T04:11:56;17.08;;;10.90;;
52380;SDS011;38310;52.796;6.942;2023-12-14T04:14:22;13.77;;;10.07;;
52380;SDS011;38310;52.796;6.942;2023-12-14T04:16:48;14.02;;;10.60;;
52380;SDS011;38310;52.796;6.942;2023-12-14T04:19:13;13.48;;;10.50;;
52380;SDS011;38310;52.796;6.942;2023-12-14T04:21:39;12.98;;;10.57;;
52380;SDS011;38310;52.796;6.942;2023-12-14T04:24:05;14.57;;;10.48;;
52380;SDS011;38310;52.796;6.942;2023-12-14T04:26:31;11.80;;;9.15;;
52380;SDS011;38310;52.796;6.942;2023-12-14T04:28:56;12.45;;;9.68;;
52380;SDS011;38310;52.796;6.942;2023-12-14T04:31:22;13.38;;;9.25;;
52380;SDS011;38310;52.796;6.942;2023-12-14T04:33:48;13.65;;;10.25;;
52380;SDS011;38310;52.796;6.942;2023-12-14T04:36:14;15.18;;;10.13;;
52380;SDS011;38310;52.796;6.942;2023-12-14T04:38:39;14.63;;;10.45;;
52380;SDS011;38310;52.796;6.942;2023-12-14T04:41:05;15.60;;;10.70;;
52380;SDS011;38310;52.796;6.942;2023-12-14T04:43:32;13.30;;;10.35;;
52380;SDS011;38310;52.796;6.942;2023-12-14T04:45:58;12.93;;;10.25;;
52380;SDS011;38310;52.796;6.942;2023-12-14T04:48:23;13.68;;;10.32;;
52380;SDS011;38310;52.796;6.942;2023-12-14T04:50:49;13.93;;;9.98;;
52380;SDS011;38310;52.796;6.942;2023-12-14T04:53:15;12.27;;;9.73;;
52380;SDS011;38310;52.796;6.942;2023-12-14T04:55:41;13.23;;;10.32;;
52380;SDS011;38310;52.796;6.942;2023-12-14T04:58:07;10.88;;;9.27;;
52380;SDS011;38310;52.796;6.942;2023-12-14T05:00:32;13.73;;;10.23;;
52380;SDS011;38310;52.796;6.942;2023-12-14T05:02:58;13.70;;;9.57;;
52380;SDS011;38310;52.796;6.942;2023-12-14T05:05:24;11.65;;;9.30;;
52380;SDS011;38310;52.796;6.942;2023-12-14T05:07:51;11.05;;;9.32;;
52380;SDS011;38310;52.796;6.942;2023-12-14T05:10:16;12.10;;;8.98;;
52380;SDS011;38310;52.796;6.942;2023-12-14T05:12:42;12.18;;;9.20;;
52380;SDS011;38310;52.796;6.942;2023-12-14T05:15:08;11.65;;;9.07;;
52380;SDS011;38310;52.796;6.942;2023-12-14T05:17:35;11.00;;;8.70;;
52380;SDS011;38310;52.796;6.942;2023-12-14T05:20:02;12.18;;;10.00;;
52380;SDS011;38310;52.796;6.942;2023-12-14T05:22:34;13.63;;;9.68;;
52380;SDS011;38310;52.796;6.942;2023-12-14T05:25:00;11.90;;;9.70;;
52380;SDS011;38310;52.796;6.942;2023-12-14T05:27:26;13.80;;;10.32;;
52380;SDS011;38310;52.796;6.942;2023-12-14T05:29:52;11.27;;;9.98;;
52380;SDS011;38310;52.796;6.942;2023-12-14T05:32:23;13.75;;;9.70;;
52380;SDS011;38310;52.796;6.942;2023-12-14T05:34:49;12.45;;;10.10;;
52380;SDS011;38310;52.796;6.942;2023-12-14T05:37:15;15.77;;;10.82;;
52380;SDS011;38310;52.796;6.942;2023-12-14T05:39:41;13.10;;;9.80;;
52380;SDS011;38310;52.796;6.942;2023-12-14T05:42:08;14.77;;;11.60;;
52380;SDS011;38310;52.796;6.942;2023-12-14T05:44:34;14.20;;;10.90;;
52380;SDS011;38310;52.796;6.942;2023-12-14T05:47:00;15.23;;;10.82;;
52380;SDS011;38310;52.796;6.942;2023-12-14T05:49:26;16.05;;;11.50;;
52380;SDS011;38310;52.796;6.942;2023-12-14T05:51:52;15.73;;;11.40;;
52380;SDS011;38310;52.796;6.942;2023-12-14T05:54:17;13.60;;;10.77;;
52380;SDS011;38310;52.796;6.942;2023-12-14T05:56:43;14.35;;;11.20;;
52380;SDS011;38310;52.796;6.942;2023-12-14T05:59:09;15.45;;;12.15;;
52380;SDS011;38310;52.796;6.942;2023-12-14T06:01:34;15.55;;;11.25;;
52380;SDS011;38310;52.796;6.942;2023-12-14T06:04:00;18.63;;;11.63;;
52380;SDS011;38310;52.796;6.942;2023-12-14T06:06:27;16.73;;;11.45;;
52380;SDS011;38310;52.796;6.942;2023-12-14T06:08:53;15.80;;;11.85;;
52380;SDS011;38310;52.796;6.942;2023-12-14T06:11:19;14.80;;;11.48;;
52380;SDS011;38310;52.796;6.942;2023-12-14T06:13:45;15.07;;;10.80;;
52380;SDS011;38310;52.796;6.942;2023-12-14T06:16:11;16.08;;;11.88;;
52380;SDS011;38310;52.796;6.942;2023-12-14T06:18:38;18.27;;;11.98;;
52380;SDS011;38310;52.796;6.942;2023-12-14T06:21:06;17.10;;;12.15;;
52380;SDS011;38310;52.796;6.942;2023-12-14T06:23:32;15.93;;;12.02;;
52380;SDS011;38310;52.796;6.942;2023-12-14T06:25:58;14.48;;;10.65;;
52380;SDS011;38310;52.796;6.942;2023-12-14T06:28:24;13.93;;;10.73;;
52380;SDS011;38310;52.796;6.942;2023-12-14T06:30:50;14.73;;;11.00;;
52380;SDS011;38310;52.796;6.942;2023-12-14T06:33:16;13.90;;;11.52;;
52380;SDS011;38310;52.796;6.942;2023-12-14T06:35:42;12.95;;;9.75;;
52380;SDS011;38310;52.796;6.942;2023-12-14T06:38:08;12.25;;;9.80;;
52380;SDS011;38310;52.796;6.942;2023-12-14T06:40:34;11.52;;;9.50;;
52380;SDS011;38310;52.796;6.942;2023-12-14T06:43:00;12.15;;;9.55;;
52380;SDS011;38310;52.796;6.942;2023-12-14T06:45:30;15.45;;;11.50;;
52380;SDS011;38310;52.796;6.942;2023-12-14T06:47:55;14.68;;;10.65;;
52380;SDS011;38310;52.796;6.942;2023-12-14T06:50:21;13.20;;;10.90;;
52380;SDS011;38310;52.796;6.942;2023-12-14T06:52:47;15.70;;;10.35;;
52380;SDS011;38310;52.796;6.942;2023-12-14T06:55:14;13.68;;;10.82;;
52380;SDS011;38310;52.796;6.942;2023-12-14T06:57:43;13.77;;;10.52;;
52380;SDS011;38310;52.796;6.942;2023-12-14T07:00:12;13.88;;;10.70;;
52380;SDS011;38310;52.796;6.942;2023-12-14T07:02:38;15.27;;;11.85;;
52380;SDS011;38310;52.796;6.942;2023-12-14T07:05:04;14.48;;;10.63;;
52380;SDS011;38310;52.796;6.942;2023-12-14T07:07:30;14.45;;;10.95;;
52380;SDS011;38310;52.796;6.942;2023-12-14T07:10:02;14.05;;;10.52;;
52380;SDS011;38310;52.796;6.942;2023-12-14T07:12:27;13.68;;;11.82;;
52380;SDS011;38310;52.796;6.942;2023-12-14T07:14:53;15.25;;;11.88;;
52380;SDS011;38310;52.796;6.942;2023-12-14T07:17:19;17.13;;;12.20;;
52380;SDS011;38310;52.796;6.942;2023-12-14T07:19:45;17.23;;;12.77;;
52380;SDS011;38310;52.796;6.942;2023-12-14T07:22:11;16.15;;;12.40;;
52380;SDS011;38310;52.796;6.942;2023-12-14T07:24:36;15.02;;;12.07;;
52380;SDS011;38310;52.796;6.942;2023-12-14T07:27:02;15.77;;;12.23;;
52380;SDS011;38310;52.796;6.942;2023-12-14T07:29:29;15.38;;;11.75;;
52380;SDS011;38310;52.796;6.942;2023-12-14T07:31:55;16.42;;;12.07;;
52380;SDS011;38310;52.796;6.942;2023-12-14T07:34:20;20.00;;;12.18;;
52380;SDS011;38310;52.796;6.942;2023-12-14T07:36:46;17.88;;;12.68;;
52380;SDS011;38310;52.796;6.942;2023-12-14T07:39:12;17.48;;;12.30;;
52380;SDS011;38310;52.796;6.942;2023-12-14T07:41:37;16.45;;;12.07;;
52380;SDS011;38310;52.796;6.942;2023-12-14T07:44:03;17.17;;;11.77;;
52380;SDS011;38310;52.796;6.942;2023-12-14T07:46:30;16.50;;;12.20;;
52380;SDS011;38310;52.796;6.942;2023-12-14T07:48:55;17.13;;;12.15;;
52380;SDS011;38310;52.796;6.942;2023-12-14T07:51:21;16.20;;;11.48;;
52380;SDS011;38310;52.796;6.942;2023-12-14T07:53:47;17.83;;;12.63;;
52380;SDS011;38310;52.796;6.942;2023-12-14T07:56:13;16.90;;;12.75;;
52380;SDS011;38310;52.796;6.942;2023-12-14T07:58:39;18.77;;;12.63;;
52380;SDS011;38310;52.796;6.942;2023-12-14T08:01:05;15.93;;;11.70;;
52380;SDS011;38310;52.796;6.942;2023-12-14T08:03:31;15.90;;;12.07;;
52380;SDS011;38310;52.796;6.942;2023-12-14T08:05:57;15.35;;;11.30;;
52380;SDS011;38310;52.796;6.942;2023-12-14T08:08:23;18.55;;;13.68;;
52380;SDS011;38310;52.796;6.942;2023-12-14T08:10:49;18.05;;;13.07;;
52380;SDS011;38310;52.796;6.942;2023-12-14T08:13:15;17.27;;;13.38;;
52380;SDS011;38310;52.796;6.942;2023-12-14T08:15:40;18.88;;;14.13;;
52380;SDS011;38310;52.796;6.942;2023-12-14T08:18:06;20.58;;;14.18;;
52380;SDS011;38310;52.796;6.942;2023-12-14T08:20:34;16.40;;;12.90;;
52380;SDS011;38310;52.796;6.942;2023-12-14T08:23:00;18.90;;;13.93;;
52380;SDS011;38310;52.796;6.942;2023-12-14T08:25:25;21.17;;;14.68;;
52380;SDS011;38310;52.796;6.942;2023-12-14T08:27:51;19.50;;;13.75;;
52380;SDS011;38310;52.796;6.942;2023-12-14T08:30:17;22.02;;;15.43;;
52380;SDS011;38310;52.796;6.942;2023-12-14T08:32:42;20.38;;;14.20;;
52380;SDS011;38310;52.796;6.942;2023-12-14T08:35:08;21.27;;;15.10;;
52380;SDS011;38310;52.796;6.942;2023-12-14T08:37:37;21.27;;;15.68;;
52380;SDS011;38310;52.796;6.942;2023-12-14T08:40:04;20.95;;;15.50;;
52380;SDS011;38310;52.796;6.942;2023-12-14T08:42:31;19.10;;;13.45;;
52380;SDS011;38310;52.796;6.942;2023-12-14T08:44:57;21.42;;;14.45;;
52380;SDS011;38310;52.796;6.942;2023-12-14T08:47:22;21.80;;;14.48;;
52380;SDS011;38310;52.796;6.942;2023-12-14T08:49:51;19.42;;;14.65;;
52380;SDS011;38310;52.796;6.942;2023-12-14T08:52:18;22.48;;;15.63;;
52380;SDS011;38310;52.796;6.942;2023-12-14T08:54:44;29.92;;;21.45;;
52380;SDS011;38310;52.796;6.942;2023-12-14T08:57:10;23.85;;;17.48;;
52380;SDS011;38310;52.796;6.942;2023-12-14T08:59:36;20.50;;;14.15;;
52380;SDS011;38310;52.796;6.942;2023-12-14T09:02:02;23.52;;;16.98;;
52380;SDS011;38310;52.796;6.942;2023-12-14T09:04:29;20.73;;;16.23;;
52380;SDS011;38310;52.796;6.942;2023-12-14T09:06:55;21.17;;;15.57;;
52380;SDS011;38310;52.796;6.942;2023-12-14T09:09:26;21.52;;;14.90;;
52380;SDS011;38310;52.796;6.942;2023-12-14T09:11:52;21.20;;;15.15;;
52380;SDS011;38310;52.796;6.942;2023-12-14T09:14:18;20.30;;;15.00;;
52380;SDS011;38310;52.796;6.942;2023-12-14T09:16:43;21.90;;;14.10;;
52380;SDS011;38310;52.796;6.942;2023-12-14T09:19:09;24.35;;;15.07;;
52380;SDS011;38310;52.796;6.942;2023-12-14T09:21:35;21.00;;;14.77;;
52380;SDS011;38310;52.796;6.942;2023-12-14T09:24:00;22.65;;;14.77;;
52380;SDS011;38310;52.796;6.942;2023-12-14T09:26:26;21.30;;;14.20;;
52380;SDS011;38310;52.796;6.942;2023-12-14T09:28:52;21.55;;;14.93;;
52380;SDS011;38310;52.796;6.942;2023-12-14T09:31:18;18.65;;;13.73;;
52380;SDS011;38310;52.796;6.942;2023-12-14T09:33:44;19.55;;;14.65;;
52380;SDS011;38310;52.796;6.942;2023-12-14T09:36:09;18.67;;;14.65;;
52380;SDS011;38310;52.796;6.942;2023-12-14T09:38:35;18.90;;;13.50;;
52380;SDS011;38310;52.796;6.942;2023-12-14T09:41:01;21.10;;;13.70;;
52380;SDS011;38310;52.796;6.942;2023-12-14T09:43:28;21.05;;;14.57;;
52380;SDS011;38310;52.796;6.942;2023-12-14T09:45:55;20.55;;;14.85;;
52380;SDS011;38310;52.796;6.942;2023-12-14T09:48:21;21.90;;;14.95;;
52380;SDS011;38310;52.796;6.942;2023-12-14T09:50:48;20.08;;;15.15;;
52380;SDS011;38310;52.796;6.942;2023-12-14T09:53:14;19.67;;;14.18;;
52380;SDS011;38310;52.796;6.942;2023-12-14T09:55:40;22.65;;;15.73;;
52380;SDS011;38310;52.796;6.942;2023-12-14T09:58:05;19.25;;;15.52;;
52380;SDS011;38310;52.796;6.942;2023-12-14T10:03:17;24.13;;;16.42;;
52380;SDS011;38310;52.796;6.942;2023-12-14T10:05:43;22.85;;;16.27;;
52380;SDS011;38310;52.796;6.942;2023-12-14T10:08:09;23.65;;;15.48;;
52380;SDS011;38310;52.796;6.942;2023-12-14T10:10:37;23.17;;;17.00;;
52380;SDS011;38310;52.796;6.942;2023-12-14T10:13:03;22.85;;;16.38;;
52380;SDS011;38310;52.796;6.942;2023-12-14T10:15:29;25.10;;;15.80;;
52380;SDS011;38310;52.796;6.942;2023-12-14T10:18:04;24.73;;;16.00;;
52380;SDS011;38310;52.796;6.942;2023-12-14T10:20:31;27.42;;;17.50;;
52380;SDS011;38310;52.796;6.942;2023-12-14T10:22:57;26.20;;;16.02;;
52380;SDS011;38310;52.796;6.942;2023-12-14T10:25:24;24.05;;;16.60;;
52380;SDS011;38310;52.796;6.942;2023-12-14T10:27:52;21.98;;;15.32;;
52380;SDS011;38310;52.796;6.942;2023-12-14T10:30:19;24.17;;;17.30;;
52380;SDS011;38310;52.796;6.942;2023-12-14T10:32:48;24.77;;;16.10;;
52380;SDS011;38310;52.796;6.942;2023-12-14T10:35:14;25.63;;;17.05;;
52380;SDS011;38310;52.796;6.942;2023-12-14T10:37:41;25.27;;;16.52;;
52380;SDS011;38310;52.796;6.942;2023-12-14T10:40:11;24.70;;;16.58;;
52380;SDS011;38310;52.796;6.942;2023-12-14T10:42:39;21.63;;;15.63;;
52380;SDS011;38310;52.796;6.942;2023-12-14T10:45:08;21.98;;;16.25;;
52380;SDS011;38310;52.796;6.942;2023-12-14T10:47:38;21.38;;;15.57;;
52380;SDS011;38310;52.796;6.942;2023-12-14T10:50:08;23.58;;;16.20;;
52380;SDS011;38310;52.796;6.942;2023-12-14T10:52:37;24.05;;;15.77;;
52380;SDS011;38310;52.796;6.942;2023-12-14T10:57:56;21.77;;;15.70;;
52380;SDS011;38310;52.796;6.942;2023-12-14T11:00:23;23.85;;;16.15;;
52380;SDS011;38310;52.796;6.942;2023-12-14T11:02:48;26.52;;;16.70;;
52380;SDS011;38310;52.796;6.942;2023-12-14T11:05:15;21.30;;;15.52;;
52380;SDS011;38310;52.796;6.942;2023-12-14T11:07:48;23.02;;;15.02;;
52380;SDS011;38310;52.796;6.942;2023-12-14T11:10:38;24.17;;;16.38;;
52380;SDS011;38310;52.796;6.942;2023-12-14T11:13:06;25.95;;;15.82;;
52380;SDS011;38310;52.796;6.942;2023-12-14T11:15:39;20.83;;;15.60;;
52380;SDS011;38310;52.796;6.942;2023-12-14T11:23:14;28.35;;;17.10;;
52380;SDS011;38310;52.796;6.942;2023-12-14T11:25:47;25.13;;;16.30;;
52380;SDS011;38310;52.796;6.942;2023-12-14T11:28:15;23.13;;;15.40;;
52380;SDS011;38310;52.796;6.942;2023-12-14T11:30:43;21.58;;;15.10;;
52380;SDS011;38310;52.796;6.942;2023-12-14T11:33:10;21.17;;;14.85;;
52380;SDS011;38310;52.796;6.942;2023-12-14T11:35:36;20.27;;;14.60;;
52380;SDS011;38310;52.796;6.942;2023-12-14T11:38:02;21.92;;;14.80;;
52380;SDS011;38310;52.796;6.942;2023-12-14T11:40:37;20.20;;;14.77;;
52380;SDS011;38310;52.796;6.942;2023-12-14T11:43:19;19.02;;;13.90;;
52380;SDS011;38310;52.796;6.942;2023-12-14T11:45:50;22.63;;;15.20;;
52380;SDS011;38310;52.796;6.942;2023-12-14T11:48:15;22.30;;;14.93;;
52380;SDS011;38310;52.796;6.942;2023-12-14T11:50:42;21.83;;;14.95;;
52380;SDS011;38310;52.796;6.942;2023-12-14T11:53:08;20.35;;;13.70;;
52380;SDS011;38310;52.796;6.942;2023-12-14T11:55:36;20.88;;;14.48;;
52380;SDS011;38310;52.796;6.942;2023-12-14T11:58:03;20.58;;;14.60;;
52380;SDS011;38310;52.796;6.942;2023-12-14T12:00:30;22.40;;;14.38;;
52380;SDS011;38310;52.796;6.942;2023-12-14T12:05:42;22.90;;;14.40;;
52380;SDS011;38310;52.796;6.942;2023-12-14T12:08:10;23.88;;;14.18;;
52380;SDS011;38310;52.796;6.942;2023-12-14T12:10:42;23.67;;;14.30;;
52380;SDS011;38310;52.796;6.942;2023-12-14T12:13:26;20.13;;;12.98;;
52380;SDS011;38310;52.796;6.942;2023-12-14T12:15:54;19.73;;;13.20;;
52380;SDS011;38310;52.796;6.942;2023-12-14T12:18:20;20.63;;;13.38;;
52380;SDS011;38310;52.796;6.942;2023-12-14T12:20:46;20.77;;;14.20;;
52380;SDS011;38310;52.796;6.942;2023-12-14T12:25:20;19.42;;;12.70;;
52380;SDS011;38310;52.796;6.942;2023-12-14T12:27:48;21.35;;;13.43;;
52380;SDS011;38310;52.796;6.942;2023-12-14T12:30:14;20.92;;;14.25;;
52380;SDS011;38310;52.796;6.942;2023-12-14T12:32:45;20.08;;;13.95;;
52380;SDS011;38310;52.796;6.942;2023-12-14T12:35:12;20.55;;;13.75;;
52380;SDS011;38310;52.796;6.942;2023-12-14T12:37:44;19.30;;;13.68;;
52380;SDS011;38310;52.796;6.942;2023-12-14T12:40:15;18.52;;;13.13;;
52380;SDS011;38310;52.796;6.942;2023-12-14T12:42:44;20.25;;;13.10;;
52380;SDS011;38310;52.796;6.942;2023-12-14T12:45:13;19.33;;;13.15;;
52380;SDS011;38310;52.796;6.942;2023-12-14T12:47:39;18.10;;;12.13;;
52380;SDS011;38310;52.796;6.942;2023-12-14T12:50:05;17.10;;;12.93;;
52380;SDS011;38310;52.796;6.942;2023-12-14T12:52:31;17.38;;;12.38;;
52380;SDS011;38310;52.796;6.942;2023-12-14T12:54:57;17.33;;;13.38;;
52380;SDS011;38310;52.796;6.942;2023-12-14T12:57:23;19.92;;;12.80;;
52380;SDS011;38310;52.796;6.942;2023-12-14T12:59:49;18.75;;;12.75;;
52380;SDS011;38310;52.796;6.942;2023-12-14T13:02:15;21.38;;;13.88;;
52380;SDS011;38310;52.796;6.942;2023-12-14T13:04:41;19.92;;;13.90;;
52380;SDS011;38310;52.796;6.942;2023-12-14T13:07:07;24.58;;;14.00;;
52380;SDS011;38310;52.796;6.942;2023-12-14T13:09:34;19.48;;;13.38;;
52380;SDS011;38310;52.796;6.942;2023-12-14T13:12:00;21.17;;;14.85;;
52380;SDS011;38310;52.796;6.942;2023-12-14T13:14:25;20.02;;;14.25;;
52380;SDS011;38310;52.796;6.942;2023-12-14T13:16:51;24.08;;;16.35;;
52380;SDS011;38310;52.796;6.942;2023-12-14T13:19:17;23.33;;;17.38;;
52380;SDS011;38310;52.796;6.942;2023-12-14T13:21:43;24.52;;;14.27;;
52380;SDS011;38310;52.796;6.942;2023-12-14T13:24:10;22.55;;;15.75;;
52380;SDS011;38310;52.796;6.942;2023-12-14T13:26:36;23.33;;;15.48;;
52380;SDS011;38310;52.796;6.942;2023-12-14T13:29:01;21.63;;;15.23;;
52380;SDS011;38310;52.796;6.942;2023-12-14T13:31:28;22.38;;;14.95;;
52380;SDS011;38310;52.796;6.942;2023-12-14T13:33:53;24.15;;;18.98;;
52380;SDS011;38310;52.796;6.942;2023-12-14T13:36:20;19.95;;;13.95;;
52380;SDS011;38310;52.796;6.942;2023-12-14T13:38:46;18.60;;;13.70;;
52380;SDS011;38310;52.796;6.942;2023-12-14T13:41:12;17.27;;;12.40;;
52380;SDS011;38310;52.796;6.942;2023-12-14T13:43:38;19.38;;;13.35;;
52380;SDS011;38310;52.796;6.942;2023-12-14T13:46:04;17.50;;;12.10;;
52380;SDS011;38310;52.796;6.942;2023-12-14T13:48:34;21.63;;;14.52;;
52380;SDS011;38310;52.796;6.942;2023-12-14T13:51:00;17.75;;;13.27;;
52380;SDS011;38310;52.796;6.942;2023-12-14T13:53:25;20.33;;;14.73;;
52380;SDS011;38310;52.796;6.942;2023-12-14T13:55:51;18.65;;;13.55;;
52380;SDS011;38310;52.796;6.942;2023-12-14T13:58:17;18.88;;;13.20;;
52380;SDS011;38310;52.796;6.942;2023-12-14T14:00:43;20.98;;;14.68;;
52380;SDS011;38310;52.796;6.942;2023-12-14T14:03:09;18.15;;;13.15;;
52380;SDS011;38310;52.796;6.942;2023-12-14T14:05:35;18.52;;;13.25;;
52380;SDS011;38310;52.796;6.942;2023-12-14T14:08:01;25.85;;;17.55;;
52380;SDS011;38310;52.796;6.942;2023-12-14T14:10:30;22.20;;;14.60;;
52380;SDS011;38310;52.796;6.942;2023-12-14T14:12:56;17.38;;;13.05;;
52380;SDS011;38310;52.796;6.942;2023-12-14T14:15:22;20.13;;;13.13;;
52380;SDS011;38310;52.796;6.942;2023-12-14T14:17:48;20.95;;;13.35;;
52380;SDS011;38310;52.796;6.942;2023-12-14T14:20:16;17.92;;;13.20;;
52380;SDS011;38310;52.796;6.942;2023-12-14T14:22:43;20.77;;;14.82;;
52380;SDS011;38310;52.796;6.942;2023-12-14T14:25:09;20.20;;;12.65;;
52380;SDS011;38310;52.796;6.942;2023-12-14T14:27:35;19.55;;;12.80;;
52380;SDS011;38310;52.796;6.942;2023-12-14T14:30:02;18.40;;;12.13;;
52380;SDS011;38310;52.796;6.942;2023-12-14T14:32:28;19.98;;;12.55;;
52380;SDS011;38310;52.796;6.942;2023-12-14T14:34:56;18.75;;;12.85;;